Fence Lake, New Mexico
Current Conditions -  °F | °C
As of 6:54 AM on Thursday 29 Jan 2015 (Local Time) from KSJN Reporting Station
Clear Clear  
Wind Chill: 33°   Ceiling: Unl
Heat Index: 33°   Visibility: 10mi
Dew Point: 30°   Wind: 3mph
Humidity: 89%   Direction: 190°S
Pressure: 30.25"   Gusts: NA
Location:  34.65°N, 108.68°W
Report Text: KSJN 291354Z AUTO 19003KT 10SM CLR 01/M01 A3025 RMK AO2 SLP227 T00061011
Loading
Personal Weather Stations






























Interactive Weather Map New forecast layout! Learn more

10-Day Weather Forecast

Advertisements
Track Severe Weather on mobile